sensor_id;sensor_type;location;lat;lon;timestamp;P1;durP1;ratioP1;P2;durP2;ratioP2
47287;SDS011;33020;53.008;13.558;2022-08-25T00:02:14;8.25;;;6.95;;
47287;SDS011;33020;53.008;13.558;2022-08-25T00:04:41;8.73;;;6.07;;
47287;SDS011;33020;53.008;13.558;2022-08-25T00:07:08;8.20;;;6.60;;
47287;SDS011;33020;53.008;13.558;2022-08-25T00:09:35;6.72;;;6.07;;
47287;SDS011;33020;53.008;13.558;2022-08-25T00:12:02;6.95;;;6.18;;
47287;SDS011;33020;53.008;13.558;2022-08-25T00:14:35;7.85;;;6.45;;
47287;SDS011;33020;53.008;13.558;2022-08-25T00:19:54;7.28;;;6.25;;
47287;SDS011;33020;53.008;13.558;2022-08-25T00:22:21;7.55;;;5.95;;
47287;SDS011;33020;53.008;13.558;2022-08-25T00:24:48;10.07;;;6.47;;
47287;SDS011;33020;53.008;13.558;2022-08-25T00:27:15;8.00;;;6.13;;
47287;SDS011;33020;53.008;13.558;2022-08-25T00:29:43;9.63;;;6.53;;
47287;SDS011;33020;53.008;13.558;2022-08-25T00:32:10;10.13;;;6.07;;
47287;SDS011;33020;53.008;13.558;2022-08-25T00:34:38;8.13;;;6.45;;
47287;SDS011;33020;53.008;13.558;2022-08-25T00:37:06;6.60;;;5.90;;
47287;SDS011;33020;53.008;13.558;2022-08-25T00:39:35;7.28;;;6.47;;
47287;SDS011;33020;53.008;13.558;2022-08-25T00:42:02;9.80;;;6.57;;
47287;SDS011;33020;53.008;13.558;2022-08-25T00:44:31;6.40;;;5.68;;
47287;SDS011;33020;53.008;13.558;2022-08-25T00:46:59;7.28;;;6.15;;
47287;SDS011;33020;53.008;13.558;2022-08-25T00:52:12;7.50;;;6.45;;
47287;SDS011;33020;53.008;13.558;2022-08-25T00:54:47;8.57;;;6.93;;
47287;SDS011;33020;53.008;13.558;2022-08-25T00:59:44;9.82;;;6.80;;
47287;SDS011;33020;53.008;13.558;2022-08-25T01:02:12;7.97;;;7.18;;
47287;SDS011;33020;53.008;13.558;2022-08-25T01:04:41;9.77;;;6.93;;
47287;SDS011;33020;53.008;13.558;2022-08-25T01:07:14;7.78;;;6.97;;
47287;SDS011;33020;53.008;13.558;2022-08-25T01:09:43;8.35;;;7.00;;
47287;SDS011;33020;53.008;13.558;2022-08-25T01:12:12;10.20;;;7.72;;
47287;SDS011;33020;53.008;13.558;2022-08-25T01:14:39;10.27;;;8.30;;
47287;SDS011;33020;53.008;13.558;2022-08-25T01:17:06;11.93;;;9.05;;
47287;SDS011;33020;53.008;13.558;2022-08-25T01:19:33;20.33;;;13.20;;
47287;SDS011;33020;53.008;13.558;2022-08-25T01:22:00;18.88;;;13.18;;
47287;SDS011;33020;53.008;13.558;2022-08-25T01:27:03;16.75;;;12.43;;
47287;SDS011;33020;53.008;13.558;2022-08-25T01:29:30;18.65;;;12.85;;
47287;SDS011;33020;53.008;13.558;2022-08-25T01:31:59;19.23;;;13.07;;
47287;SDS011;33020;53.008;13.558;2022-08-25T01:34:28;20.27;;;13.52;;
47287;SDS011;33020;53.008;13.558;2022-08-25T01:36:57;24.77;;;16.48;;
47287;SDS011;33020;53.008;13.558;2022-08-25T01:39:25;25.58;;;14.35;;
47287;SDS011;33020;53.008;13.558;2022-08-25T01:44:33;28.90;;;17.50;;
47287;SDS011;33020;53.008;13.558;2022-08-25T01:47:02;25.42;;;17.08;;
47287;SDS011;33020;53.008;13.558;2022-08-25T01:49:29;25.02;;;15.75;;
47287;SDS011;33020;53.008;13.558;2022-08-25T01:51:59;20.65;;;14.48;;
47287;SDS011;33020;53.008;13.558;2022-08-25T01:54:43;28.10;;;16.45;;
47287;SDS011;33020;53.008;13.558;2022-08-25T01:57:10;24.77;;;18.10;;
47287;SDS011;33020;53.008;13.558;2022-08-25T01:59:37;25.35;;;17.52;;
47287;SDS011;33020;53.008;13.558;2022-08-25T02:02:04;32.65;;;18.90;;
47287;SDS011;33020;53.008;13.558;2022-08-25T02:04:31;33.13;;;20.80;;
47287;SDS011;33020;53.008;13.558;2022-08-25T02:07:00;29.63;;;18.35;;
47287;SDS011;33020;53.008;13.558;2022-08-25T02:09:28;30.27;;;19.30;;
47287;SDS011;33020;53.008;13.558;2022-08-25T02:11:55;29.38;;;18.48;;
47287;SDS011;33020;53.008;13.558;2022-08-25T02:14:22;30.30;;;19.95;;
47287;SDS011;33020;53.008;13.558;2022-08-25T02:16:50;31.73;;;19.25;;
47287;SDS011;33020;53.008;13.558;2022-08-25T02:19:20;29.75;;;18.95;;
47287;SDS011;33020;53.008;13.558;2022-08-25T02:21:47;34.60;;;21.38;;
47287;SDS011;33020;53.008;13.558;2022-08-25T02:24:15;33.60;;;19.83;;
47287;SDS011;33020;53.008;13.558;2022-08-25T02:26:42;31.00;;;19.00;;
47287;SDS011;33020;53.008;13.558;2022-08-25T02:29:09;28.08;;;17.98;;
47287;SDS011;33020;53.008;13.558;2022-08-25T02:31:36;31.98;;;19.13;;
47287;SDS011;33020;53.008;13.558;2022-08-25T02:34:05;31.05;;;18.85;;
47287;SDS011;33020;53.008;13.558;2022-08-25T02:36:33;29.90;;;18.90;;
47287;SDS011;33020;53.008;13.558;2022-08-25T02:39:01;27.60;;;18.40;;
47287;SDS011;33020;53.008;13.558;2022-08-25T02:41:30;26.63;;;17.52;;
47287;SDS011;33020;53.008;13.558;2022-08-25T02:43:58;27.75;;;17.48;;
47287;SDS011;33020;53.008;13.558;2022-08-25T02:46:26;28.05;;;18.90;;
47287;SDS011;33020;53.008;13.558;2022-08-25T02:48:56;32.20;;;20.73;;
47287;SDS011;33020;53.008;13.558;2022-08-25T02:51:24;26.95;;;17.63;;
47287;SDS011;33020;53.008;13.558;2022-08-25T02:53:54;28.92;;;18.35;;
47287;SDS011;33020;53.008;13.558;2022-08-25T02:56:23;27.02;;;18.75;;
47287;SDS011;33020;53.008;13.558;2022-08-25T02:58:51;26.83;;;17.42;;
47287;SDS011;33020;53.008;13.558;2022-08-25T03:01:18;27.15;;;18.25;;
47287;SDS011;33020;53.008;13.558;2022-08-25T03:03:46;28.10;;;18.05;;
47287;SDS011;33020;53.008;13.558;2022-08-25T03:06:15;30.38;;;18.45;;
47287;SDS011;33020;53.008;13.558;2022-08-25T03:08:44;28.95;;;18.63;;
47287;SDS011;33020;53.008;13.558;2022-08-25T03:11:11;24.48;;;16.92;;
47287;SDS011;33020;53.008;13.558;2022-08-25T03:13:38;27.63;;;17.48;;
47287;SDS011;33020;53.008;13.558;2022-08-25T03:16:05;21.52;;;16.25;;
47287;SDS011;33020;53.008;13.558;2022-08-25T03:18:37;22.38;;;16.48;;
47287;SDS011;33020;53.008;13.558;2022-08-25T03:21:05;22.33;;;15.20;;
47287;SDS011;33020;53.008;13.558;2022-08-25T03:23:32;23.90;;;16.55;;
47287;SDS011;33020;53.008;13.558;2022-08-25T03:25:59;24.00;;;17.02;;
47287;SDS011;33020;53.008;13.558;2022-08-25T03:28:45;24.73;;;17.85;;
47287;SDS011;33020;53.008;13.558;2022-08-25T03:31:12;26.98;;;16.83;;
47287;SDS011;33020;53.008;13.558;2022-08-25T03:33:39;27.00;;;17.20;;
47287;SDS011;33020;53.008;13.558;2022-08-25T03:36:06;23.38;;;17.40;;
47287;SDS011;33020;53.008;13.558;2022-08-25T03:38:34;21.80;;;16.33;;
47287;SDS011;33020;53.008;13.558;2022-08-25T03:41:11;24.25;;;16.92;;
47287;SDS011;33020;53.008;13.558;2022-08-25T03:43:40;25.20;;;16.13;;
47287;SDS011;33020;53.008;13.558;2022-08-25T03:46:08;25.65;;;16.65;;
47287;SDS011;33020;53.008;13.558;2022-08-25T03:48:35;28.60;;;17.98;;
47287;SDS011;33020;53.008;13.558;2022-08-25T03:51:02;25.85;;;16.95;;
47287;SDS011;33020;53.008;13.558;2022-08-25T03:53:29;27.25;;;18.10;;
47287;SDS011;33020;53.008;13.558;2022-08-25T03:55:56;25.45;;;17.67;;
47287;SDS011;33020;53.008;13.558;2022-08-25T03:58:23;27.95;;;18.40;;
47287;SDS011;33020;53.008;13.558;2022-08-25T04:00:50;28.75;;;19.33;;
47287;SDS011;33020;53.008;13.558;2022-08-25T04:03:17;26.50;;;18.50;;
47287;SDS011;33020;53.008;13.558;2022-08-25T04:05:45;26.52;;;17.98;;
47287;SDS011;33020;53.008;13.558;2022-08-25T04:08:12;29.25;;;18.90;;
47287;SDS011;33020;53.008;13.558;2022-08-25T04:10:40;27.88;;;19.13;;
47287;SDS011;33020;53.008;13.558;2022-08-25T04:13:07;28.08;;;17.63;;
47287;SDS011;33020;53.008;13.558;2022-08-25T04:15:37;28.35;;;18.35;;
47287;SDS011;33020;53.008;13.558;2022-08-25T04:18:08;28.90;;;19.25;;
47287;SDS011;33020;53.008;13.558;2022-08-25T04:20:58;29.77;;;18.33;;
47287;SDS011;33020;53.008;13.558;2022-08-25T04:23:31;33.83;;;20.63;;
47287;SDS011;33020;53.008;13.558;2022-08-25T04:25:58;30.10;;;19.10;;
47287;SDS011;33020;53.008;13.558;2022-08-25T04:28:25;33.28;;;19.98;;
47287;SDS011;33020;53.008;13.558;2022-08-25T04:30:52;32.50;;;20.13;;
47287;SDS011;33020;53.008;13.558;2022-08-25T04:33:19;30.08;;;20.42;;
47287;SDS011;33020;53.008;13.558;2022-08-25T04:35:49;33.45;;;21.25;;
47287;SDS011;33020;53.008;13.558;2022-08-25T04:38:16;32.47;;;20.52;;
47287;SDS011;33020;53.008;13.558;2022-08-25T04:40:43;33.90;;;19.92;;
47287;SDS011;33020;53.008;13.558;2022-08-25T04:43:09;30.60;;;19.67;;
47287;SDS011;33020;53.008;13.558;2022-08-25T04:45:37;28.65;;;21.02;;
47287;SDS011;33020;53.008;13.558;2022-08-25T04:48:05;29.80;;;19.60;;
47287;SDS011;33020;53.008;13.558;2022-08-25T04:50:32;30.10;;;18.73;;
47287;SDS011;33020;53.008;13.558;2022-08-25T04:52:59;27.58;;;18.73;;
47287;SDS011;33020;53.008;13.558;2022-08-25T04:55:26;32.95;;;20.88;;
47287;SDS011;33020;53.008;13.558;2022-08-25T04:57:54;32.83;;;19.92;;
47287;SDS011;33020;53.008;13.558;2022-08-25T05:00:21;29.40;;;19.65;;
47287;SDS011;33020;53.008;13.558;2022-08-25T05:02:48;30.63;;;19.85;;
47287;SDS011;33020;53.008;13.558;2022-08-25T05:05:15;32.55;;;19.77;;
47287;SDS011;33020;53.008;13.558;2022-08-25T05:07:42;29.88;;;20.13;;
47287;SDS011;33020;53.008;13.558;2022-08-25T05:10:09;31.60;;;19.35;;
47287;SDS011;33020;53.008;13.558;2022-08-25T05:12:37;36.08;;;22.35;;
47287;SDS011;33020;53.008;13.558;2022-08-25T05:15:04;31.00;;;19.27;;
47287;SDS011;33020;53.008;13.558;2022-08-25T05:17:51;30.52;;;20.48;;
47287;SDS011;33020;53.008;13.558;2022-08-25T05:20:21;27.55;;;19.75;;
47287;SDS011;33020;53.008;13.558;2022-08-25T05:22:49;30.92;;;19.38;;
47287;SDS011;33020;53.008;13.558;2022-08-25T05:25:15;32.40;;;19.52;;
47287;SDS011;33020;53.008;13.558;2022-08-25T05:27:42;27.65;;;18.85;;
47287;SDS011;33020;53.008;13.558;2022-08-25T05:30:10;28.80;;;19.25;;
47287;SDS011;33020;53.008;13.558;2022-08-25T05:32:37;26.17;;;18.40;;
47287;SDS011;33020;53.008;13.558;2022-08-25T05:35:05;28.70;;;19.33;;
47287;SDS011;33020;53.008;13.558;2022-08-25T05:37:32;26.92;;;18.83;;
47287;SDS011;33020;53.008;13.558;2022-08-25T05:39:59;27.15;;;17.48;;
47287;SDS011;33020;53.008;13.558;2022-08-25T05:42:27;28.25;;;19.40;;
47287;SDS011;33020;53.008;13.558;2022-08-25T05:44:54;26.13;;;18.85;;
47287;SDS011;33020;53.008;13.558;2022-08-25T05:47:21;26.23;;;19.35;;
47287;SDS011;33020;53.008;13.558;2022-08-25T05:49:48;28.90;;;18.13;;
47287;SDS011;33020;53.008;13.558;2022-08-25T05:52:15;31.65;;;18.90;;
47287;SDS011;33020;53.008;13.558;2022-08-25T05:54:43;33.30;;;20.30;;
47287;SDS011;33020;53.008;13.558;2022-08-25T05:57:10;31.23;;;20.38;;
47287;SDS011;33020;53.008;13.558;2022-08-25T05:59:37;29.30;;;19.63;;
47287;SDS011;33020;53.008;13.558;2022-08-25T06:02:04;31.77;;;20.38;;
47287;SDS011;33020;53.008;13.558;2022-08-25T06:04:50;33.53;;;21.90;;
47287;SDS011;33020;53.008;13.558;2022-08-25T06:07:17;34.47;;;21.95;;
47287;SDS011;33020;53.008;13.558;2022-08-25T06:09:44;32.25;;;22.17;;
47287;SDS011;33020;53.008;13.558;2022-08-25T06:12:14;32.47;;;22.15;;
47287;SDS011;33020;53.008;13.558;2022-08-25T06:14:41;31.38;;;20.10;;
47287;SDS011;33020;53.008;13.558;2022-08-25T06:17:08;31.63;;;20.48;;
47287;SDS011;33020;53.008;13.558;2022-08-25T06:19:36;33.88;;;20.63;;
47287;SDS011;33020;53.008;13.558;2022-08-25T06:22:03;33.20;;;21.25;;
47287;SDS011;33020;53.008;13.558;2022-08-25T06:24:30;37.08;;;21.73;;
47287;SDS011;33020;53.008;13.558;2022-08-25T06:26:58;37.15;;;21.90;;
47287;SDS011;33020;53.008;13.558;2022-08-25T06:29:25;38.25;;;23.35;;
47287;SDS011;33020;53.008;13.558;2022-08-25T06:31:52;35.85;;;22.80;;
47287;SDS011;33020;53.008;13.558;2022-08-25T06:34:19;35.17;;;21.13;;
47287;SDS011;33020;53.008;13.558;2022-08-25T06:36:49;38.95;;;23.40;;
47287;SDS011;33020;53.008;13.558;2022-08-25T06:39:16;36.42;;;23.20;;
47287;SDS011;33020;53.008;13.558;2022-08-25T06:41:43;39.55;;;24.17;;
47287;SDS011;33020;53.008;13.558;2022-08-25T06:44:10;44.58;;;25.08;;
47287;SDS011;33020;53.008;13.558;2022-08-25T06:46:37;36.00;;;24.65;;
47287;SDS011;33020;53.008;13.558;2022-08-25T06:49:04;39.17;;;24.13;;
47287;SDS011;33020;53.008;13.558;2022-08-25T06:51:32;37.00;;;23.33;;
47287;SDS011;33020;53.008;13.558;2022-08-25T06:54:01;38.78;;;23.52;;
47287;SDS011;33020;53.008;13.558;2022-08-25T06:56:28;42.92;;;24.90;;
47287;SDS011;33020;53.008;13.558;2022-08-25T06:58:55;37.05;;;24.25;;
47287;SDS011;33020;53.008;13.558;2022-08-25T07:01:23;36.38;;;23.35;;
47287;SDS011;33020;53.008;13.558;2022-08-25T07:03:53;38.63;;;24.75;;
47287;SDS011;33020;53.008;13.558;2022-08-25T07:06:23;41.83;;;25.08;;
47287;SDS011;33020;53.008;13.558;2022-08-25T07:08:52;40.15;;;24.85;;
47287;SDS011;33020;53.008;13.558;2022-08-25T07:11:19;42.10;;;25.77;;
47287;SDS011;33020;53.008;13.558;2022-08-25T07:13:47;43.72;;;26.13;;
47287;SDS011;33020;53.008;13.558;2022-08-25T07:16:14;41.10;;;24.70;;
47287;SDS011;33020;53.008;13.558;2022-08-25T07:18:42;43.53;;;24.13;;
47287;SDS011;33020;53.008;13.558;2022-08-25T07:21:10;46.80;;;26.65;;
47287;SDS011;33020;53.008;13.558;2022-08-25T07:23:39;39.38;;;24.00;;
47287;SDS011;33020;53.008;13.558;2022-08-25T07:26:07;43.97;;;24.40;;
47287;SDS011;33020;53.008;13.558;2022-08-25T07:28:59;41.60;;;24.33;;
47287;SDS011;33020;53.008;13.558;2022-08-25T07:31:26;47.92;;;26.05;;
47287;SDS011;33020;53.008;13.558;2022-08-25T07:33:54;43.85;;;25.30;;
47287;SDS011;33020;53.008;13.558;2022-08-25T07:36:40;43.55;;;26.08;;
47287;SDS011;33020;53.008;13.558;2022-08-25T07:39:08;37.80;;;24.00;;
47287;SDS011;33020;53.008;13.558;2022-08-25T07:41:36;37.55;;;24.90;;
47287;SDS011;33020;53.008;13.558;2022-08-25T07:44:05;45.83;;;26.00;;
47287;SDS011;33020;53.008;13.558;2022-08-25T07:46:32;39.70;;;24.70;;
47287;SDS011;33020;53.008;13.558;2022-08-25T07:48:59;42.75;;;24.60;;
47287;SDS011;33020;53.008;13.558;2022-08-25T07:51:27;45.47;;;26.75;;
47287;SDS011;33020;53.008;13.558;2022-08-25T07:53:54;46.63;;;27.10;;
47287;SDS011;33020;53.008;13.558;2022-08-25T07:56:21;42.40;;;25.02;;
47287;SDS011;33020;53.008;13.558;2022-08-25T07:58:48;45.70;;;27.33;;
47287;SDS011;33020;53.008;13.558;2022-08-25T08:01:16;47.13;;;26.42;;
47287;SDS011;33020;53.008;13.558;2022-08-25T08:03:44;49.63;;;27.02;;
47287;SDS011;33020;53.008;13.558;2022-08-25T08:06:18;44.20;;;26.10;;
47287;SDS011;33020;53.008;13.558;2022-08-25T08:08:47;44.60;;;26.45;;
47287;SDS011;33020;53.008;13.558;2022-08-25T08:11:15;49.85;;;29.42;;
47287;SDS011;33020;53.008;13.558;2022-08-25T08:13:45;44.72;;;26.02;;
47287;SDS011;33020;53.008;13.558;2022-08-25T08:16:13;47.28;;;27.55;;
47287;SDS011;33020;53.008;13.558;2022-08-25T08:18:41;49.70;;;29.27;;
47287;SDS011;33020;53.008;13.558;2022-08-25T08:21:13;53.13;;;29.77;;
47287;SDS011;33020;53.008;13.558;2022-08-25T08:23:45;55.70;;;29.92;;
47287;SDS011;33020;53.008;13.558;2022-08-25T08:26:14;58.47;;;30.50;;
47287;SDS011;33020;53.008;13.558;2022-08-25T08:28:41;62.17;;;32.97;;
47287;SDS011;33020;53.008;13.558;2022-08-25T08:31:08;52.00;;;30.10;;
47287;SDS011;33020;53.008;13.558;2022-08-25T08:33:36;59.28;;;33.38;;
47287;SDS011;33020;53.008;13.558;2022-08-25T08:36:07;66.10;;;33.72;;
47287;SDS011;33020;53.008;13.558;2022-08-25T08:38:38;61.65;;;33.47;;
47287;SDS011;33020;53.008;13.558;2022-08-25T08:44:33;59.08;;;33.05;;
47287;SDS011;33020;53.008;13.558;2022-08-25T08:52:45;63.90;;;34.28;;
47287;SDS011;33020;53.008;13.558;2022-08-25T08:55:31;55.22;;;31.48;;
47287;SDS011;33020;53.008;13.558;2022-08-25T08:58:04;59.97;;;34.60;;
47287;SDS011;33020;53.008;13.558;2022-08-25T09:00:38;61.40;;;35.10;;
47287;SDS011;33020;53.008;13.558;2022-08-25T09:06:07;59.30;;;34.30;;
47287;SDS011;33020;53.008;13.558;2022-08-25T09:08:38;53.85;;;33.38;;
47287;SDS011;33020;53.008;13.558;2022-08-25T09:11:12;56.33;;;30.98;;
47287;SDS011;33020;53.008;13.558;2022-08-25T09:14:03;56.88;;;31.17;;
47287;SDS011;33020;53.008;13.558;2022-08-25T09:16:45;54.75;;;29.92;;
47287;SDS011;33020;53.008;13.558;2022-08-25T09:19:31;72.63;;;31.38;;
47287;SDS011;33020;53.008;13.558;2022-08-25T09:30:23;49.58;;;29.00;;
47287;SDS011;33020;53.008;13.558;2022-08-25T09:32:52;43.25;;;27.77;;
47287;SDS011;33020;53.008;13.558;2022-08-25T09:35:28;46.30;;;26.48;;
47287;SDS011;33020;53.008;13.558;2022-08-25T09:38:01;46.80;;;25.98;;
47287;SDS011;33020;53.008;13.558;2022-08-25T09:40:41;42.60;;;28.25;;
47287;SDS011;33020;53.008;13.558;2022-08-25T09:43:28;43.08;;;25.70;;
47287;SDS011;33020;53.008;13.558;2022-08-25T09:46:02;48.10;;;29.55;;
47287;SDS011;33020;53.008;13.558;2022-08-25T09:48:47;50.30;;;29.98;;
47287;SDS011;33020;53.008;13.558;2022-08-25T09:53:54;30.85;;;20.77;;
47287;SDS011;33020;53.008;13.558;2022-08-25T09:56:27;32.47;;;21.70;;
47287;SDS011;33020;53.008;13.558;2022-08-25T10:04:49;31.38;;;21.08;;
47287;SDS011;33020;53.008;13.558;2022-08-25T10:09:59;28.30;;;18.58;;
47287;SDS011;33020;53.008;13.558;2022-08-25T10:12:37;22.38;;;15.32;;
47287;SDS011;33020;53.008;13.558;2022-08-25T10:15:19;17.85;;;14.35;;
47287;SDS011;33020;53.008;13.558;2022-08-25T10:17:56;13.63;;;10.52;;
47287;SDS011;33020;53.008;13.558;2022-08-25T10:20:42;18.63;;;11.13;;
47287;SDS011;33020;53.008;13.558;2022-08-25T10:23:12;11.63;;;9.57;;
47287;SDS011;33020;53.008;13.558;2022-08-25T10:25:40;12.27;;;9.55;;
47287;SDS011;33020;53.008;13.558;2022-08-25T10:28:35;14.00;;;9.38;;
47287;SDS011;33020;53.008;13.558;2022-08-25T10:36:38;11.45;;;8.75;;
47287;SDS011;33020;53.008;13.558;2022-08-25T10:39:19;9.65;;;8.43;;
47287;SDS011;33020;53.008;13.558;2022-08-25T10:42:07;7.88;;;7.03;;
47287;SDS011;33020;53.008;13.558;2022-08-25T10:44:58;8.27;;;7.40;;
47287;SDS011;33020;53.008;13.558;2022-08-25T10:48:24;9.57;;;8.07;;
47287;SDS011;33020;53.008;13.558;2022-08-25T10:50:58;9.32;;;7.75;;
47287;SDS011;33020;53.008;13.558;2022-08-25T10:53:39;14.70;;;7.40;;
47287;SDS011;33020;53.008;13.558;2022-08-25T10:56:21;9.77;;;7.40;;
47287;SDS011;33020;53.008;13.558;2022-08-25T11:04:19;9.35;;;8.02;;
47287;SDS011;33020;53.008;13.558;2022-08-25T11:06:59;9.57;;;7.82;;
47287;SDS011;33020;53.008;13.558;2022-08-25T11:09:31;8.35;;;7.38;;
47287;SDS011;33020;53.008;13.558;2022-08-25T11:12:09;11.77;;;7.30;;
47287;SDS011;33020;53.008;13.558;2022-08-25T11:14:40;7.90;;;7.10;;
47287;SDS011;33020;53.008;13.558;2022-08-25T11:19:51;10.77;;;7.95;;
47287;SDS011;33020;53.008;13.558;2022-08-25T11:22:25;8.30;;;7.22;;
47287;SDS011;33020;53.008;13.558;2022-08-25T11:25:25;8.85;;;7.95;;
47287;SDS011;33020;53.008;13.558;2022-08-25T11:27:59;8.30;;;7.10;;
47287;SDS011;33020;53.008;13.558;2022-08-25T11:30:30;9.55;;;7.10;;
47287;SDS011;33020;53.008;13.558;2022-08-25T11:32:58;13.82;;;8.15;;
47287;SDS011;33020;53.008;13.558;2022-08-25T11:35:27;9.45;;;7.18;;
47287;SDS011;33020;53.008;13.558;2022-08-25T11:38:02;11.80;;;8.35;;
47287;SDS011;33020;53.008;13.558;2022-08-25T11:40:43;10.32;;;7.28;;
47287;SDS011;33020;53.008;13.558;2022-08-25T11:43:57;10.05;;;7.47;;
47287;SDS011;33020;53.008;13.558;2022-08-25T11:51:54;8.68;;;7.45;;
47287;SDS011;33020;53.008;13.558;2022-08-25T11:54:29;10.68;;;7.35;;
47287;SDS011;33020;53.008;13.558;2022-08-25T11:57:08;9.88;;;7.03;;
47287;SDS011;33020;53.008;13.558;2022-08-25T12:02:32;7.80;;;7.00;;
47287;SDS011;33020;53.008;13.558;2022-08-25T12:19:46;11.35;;;8.05;;
47287;SDS011;33020;53.008;13.558;2022-08-25T12:24:55;12.45;;;8.93;;
47287;SDS011;33020;53.008;13.558;2022-08-25T12:41:17;7.47;;;6.65;;
47287;SDS011;33020;53.008;13.558;2022-08-25T12:43:48;8.57;;;7.72;;
47287;SDS011;33020;53.008;13.558;2022-08-25T12:56:55;10.52;;;8.80;;
47287;SDS011;33020;53.008;13.558;2022-08-25T12:59:31;11.48;;;8.52;;
47287;SDS011;33020;53.008;13.558;2022-08-25T13:02:13;9.48;;;7.78;;
47287;SDS011;33020;53.008;13.558;2022-08-25T13:12:59;18.45;;;9.52;;
47287;SDS011;33020;53.008;13.558;2022-08-25T13:16:06;16.05;;;8.23;;
47287;SDS011;33020;53.008;13.558;2022-08-25T13:18:36;9.25;;;7.00;;
47287;SDS011;33020;53.008;13.558;2022-08-25T13:21:22;11.38;;;7.63;;
47287;SDS011;33020;53.008;13.558;2022-08-25T13:23:54;10.52;;;7.25;;
47287;SDS011;33020;53.008;13.558;2022-08-25T13:26:43;12.93;;;7.40;;
47287;SDS011;33020;53.008;13.558;2022-08-25T13:29:28;11.75;;;7.28;;
47287;SDS011;33020;53.008;13.558;2022-08-25T13:32:03;9.88;;;6.88;;
47287;SDS011;33020;53.008;13.558;2022-08-25T13:34:35;10.85;;;7.28;;
47287;SDS011;33020;53.008;13.558;2022-08-25T13:37:05;8.25;;;7.15;;
47287;SDS011;33020;53.008;13.558;2022-08-25T13:42:36;8.20;;;6.90;;
47287;SDS011;33020;53.008;13.558;2022-08-25T13:45:05;8.88;;;6.32;;
47287;SDS011;33020;53.008;13.558;2022-08-25T13:47:44;90.40;;;17.98;;
47287;SDS011;33020;53.008;13.558;2022-08-25T13:52:55;11.35;;;7.30;;
47287;SDS011;33020;53.008;13.558;2022-08-25T13:55:25;9.63;;;7.28;;
47287;SDS011;33020;53.008;13.558;2022-08-25T13:58:17;9.38;;;7.38;;
47287;SDS011;33020;53.008;13.558;2022-08-25T14:03:48;11.48;;;7.38;;
47287;SDS011;33020;53.008;13.558;2022-08-25T14:08:44;9.95;;;7.25;;
47287;SDS011;33020;53.008;13.558;2022-08-25T14:11:13;20.15;;;8.35;;
47287;SDS011;33020;53.008;13.558;2022-08-25T14:14:08;13.52;;;8.07;;
47287;SDS011;33020;53.008;13.558;2022-08-25T14:16:38;10.88;;;7.75;;
47287;SDS011;33020;53.008;13.558;2022-08-25T14:19:17;9.20;;;7.40;;
47287;SDS011;33020;53.008;13.558;2022-08-25T14:21:46;12.70;;;8.45;;
47287;SDS011;33020;53.008;13.558;2022-08-25T14:24:16;10.98;;;7.63;;
47287;SDS011;33020;53.008;13.558;2022-08-25T14:26:44;10.23;;;7.30;;
47287;SDS011;33020;53.008;13.558;2022-08-25T14:29:20;9.60;;;6.82;;
47287;SDS011;33020;53.008;13.558;2022-08-25T14:31:47;7.45;;;6.75;;
47287;SDS011;33020;53.008;13.558;2022-08-25T14:34:18;8.57;;;6.57;;
47287;SDS011;33020;53.008;13.558;2022-08-25T14:36:47;10.20;;;7.93;;
47287;SDS011;33020;53.008;13.558;2022-08-25T14:39:15;11.23;;;7.80;;
47287;SDS011;33020;53.008;13.558;2022-08-25T14:41:43;14.43;;;7.85;;
47287;SDS011;33020;53.008;13.558;2022-08-25T14:44:13;10.93;;;7.68;;
47287;SDS011;33020;53.008;13.558;2022-08-25T14:46:44;10.32;;;7.50;;
47287;SDS011;33020;53.008;13.558;2022-08-25T14:49:17;11.55;;;7.75;;
47287;SDS011;33020;53.008;13.558;2022-08-25T14:51:50;11.45;;;7.75;;
47287;SDS011;33020;53.008;13.558;2022-08-25T14:54:17;8.50;;;7.25;;
47287;SDS011;33020;53.008;13.558;2022-08-25T14:56:46;10.00;;;7.80;;
47287;SDS011;33020;53.008;13.558;2022-08-25T14:59:15;10.70;;;8.15;;
47287;SDS011;33020;53.008;13.558;2022-08-25T15:01:43;7.05;;;6.32;;
47287;SDS011;33020;53.008;13.558;2022-08-25T15:04:11;13.27;;;7.97;;
47287;SDS011;33020;53.008;13.558;2022-08-25T15:06:41;9.18;;;7.13;;
47287;SDS011;33020;53.008;13.558;2022-08-25T15:09:10;7.20;;;6.18;;
47287;SDS011;33020;53.008;13.558;2022-08-25T15:11:43;9.85;;;7.05;;
47287;SDS011;33020;53.008;13.558;2022-08-25T15:14:16;10.48;;;6.80;;
47287;SDS011;33020;53.008;13.558;2022-08-25T15:16:46;11.07;;;6.90;;
47287;SDS011;33020;53.008;13.558;2022-08-25T15:19:16;9.77;;;5.65;;
47287;SDS011;33020;53.008;13.558;2022-08-25T15:21:45;11.00;;;6.90;;
47287;SDS011;33020;53.008;13.558;2022-08-25T15:24:13;12.48;;;6.60;;
47287;SDS011;33020;53.008;13.558;2022-08-25T15:26:45;9.38;;;6.28;;
47287;SDS011;33020;53.008;13.558;2022-08-25T15:29:20;9.32;;;6.18;;
47287;SDS011;33020;53.008;13.558;2022-08-25T15:31:49;12.52;;;6.40;;
47287;SDS011;33020;53.008;13.558;2022-08-25T15:34:16;9.13;;;6.35;;
47287;SDS011;33020;53.008;13.558;2022-08-25T15:36:43;9.18;;;6.72;;
47287;SDS011;33020;53.008;13.558;2022-08-25T15:39:10;12.88;;;7.18;;
47287;SDS011;33020;53.008;13.558;2022-08-25T15:41:37;9.95;;;7.15;;
47287;SDS011;33020;53.008;13.558;2022-08-25T15:44:04;8.90;;;6.45;;
47287;SDS011;33020;53.008;13.558;2022-08-25T15:46:33;9.73;;;7.07;;
47287;SDS011;33020;53.008;13.558;2022-08-25T15:49:01;13.75;;;6.22;;
47287;SDS011;33020;53.008;13.558;2022-08-25T15:51:28;7.38;;;5.65;;
47287;SDS011;33020;53.008;13.558;2022-08-25T15:53:56;9.98;;;6.10;;
47287;SDS011;33020;53.008;13.558;2022-08-25T15:56:23;15.07;;;6.60;;
47287;SDS011;33020;53.008;13.558;2022-08-25T15:58:52;13.05;;;7.05;;
47287;SDS011;33020;53.008;13.558;2022-08-25T16:01:22;9.98;;;6.97;;
47287;SDS011;33020;53.008;13.558;2022-08-25T16:03:51;8.88;;;6.10;;
47287;SDS011;33020;53.008;13.558;2022-08-25T16:06:18;8.70;;;5.50;;
47287;SDS011;33020;53.008;13.558;2022-08-25T16:08:45;13.65;;;7.22;;
47287;SDS011;33020;53.008;13.558;2022-08-25T16:11:17;11.45;;;6.25;;
47287;SDS011;33020;53.008;13.558;2022-08-25T16:13:46;13.15;;;5.90;;
47287;SDS011;33020;53.008;13.558;2022-08-25T16:16:14;11.20;;;5.85;;
47287;SDS011;33020;53.008;13.558;2022-08-25T16:18:42;10.10;;;6.25;;
47287;SDS011;33020;53.008;13.558;2022-08-25T16:21:10;11.18;;;6.43;;
47287;SDS011;33020;53.008;13.558;2022-08-25T16:23:38;12.00;;;7.15;;
47287;SDS011;33020;53.008;13.558;2022-08-25T16:26:06;8.68;;;6.30;;
47287;SDS011;33020;53.008;13.558;2022-08-25T16:28:35;15.93;;;6.90;;
47287;SDS011;33020;53.008;13.558;2022-08-25T16:31:07;9.85;;;6.53;;
47287;SDS011;33020;53.008;13.558;2022-08-25T16:33:35;14.55;;;6.55;;
47287;SDS011;33020;53.008;13.558;2022-08-25T16:36:10;10.57;;;6.65;;
47287;SDS011;33020;53.008;13.558;2022-08-25T16:38:39;12.95;;;7.05;;
47287;SDS011;33020;53.008;13.558;2022-08-25T16:41:08;12.45;;;7.18;;
47287;SDS011;33020;53.008;13.558;2022-08-25T16:43:36;8.73;;;7.35;;
47287;SDS011;33020;53.008;13.558;2022-08-25T16:46:06;12.23;;;7.10;;